Time;durP1;ratioP1;P1;durP2;ratioP2;P2;SDS_P1;SDS_P2;PMS_P1;PMS_P2;Temp;Humidity;BMP_temperature;BMP_pressure;BME280_temperature;BME280_humidity;BME280_pressure;Samples;Min_cycle;Max_cycle;Signal;HPM_P1;HPM_P2
2022/10/28 00:00:50;;;;;;;8.80;6.68;;;;;;;17.79;68.10;102762.41;5022753;28;20024;-84
2022/10/28 00:03:16;;;;;;;10.55;7.18;;;;;;;17.72;68.19;102739.09;5030005;28;20067;-84
2022/10/28 00:05:42;;;;;;;10.05;7.55;;;;;;;17.51;67.99;102709.75;5033663;28;20128;-84
2022/10/28 00:08:07;;;;;;;10.25;6.63;;;;;;;17.61;68.38;102733.22;5048582;28;20542;-85
2022/10/28 00:10:33;;;;;;;10.73;7.22;;;;;;;17.42;68.25;102691.63;5054631;28;20104;-85
2022/10/28 00:12:58;;;;;;;9.70;7.47;;;;;;;17.68;67.99;102729.19;5030995;28;20071;-85
2022/10/28 00:15:24;;;;;;;8.45;6.55;;;;;;;17.45;67.91;102701.47;5031678;28;20244;-84
2022/10/28 00:17:50;;;;;;;10.48;7.75;;;;;;;17.24;68.13;102664.16;5040200;28;20082;-85
2022/10/28 00:20:16;;;;;;;9.07;6.47;;;;;;;17.72;68.03;102754.06;5016008;28;20453;-85
2022/10/28 00:22:42;;;;;;;9.68;6.63;;;;;;;17.79;68.07;102759.75;5016713;28;20037;-85
2022/10/28 00:25:08;;;;;;;8.93;6.88;;;;;;;17.72;67.94;102748.78;5017009;28;20025;-85
2022/10/28 00:27:34;;;;;;;8.73;7.20;;;;;;;17.76;68.02;102751.66;5050978;28;20021;-84
2022/10/28 00:30:00;;;;;;;9.07;7.03;;;;;;;17.68;68.12;102731.81;5041379;28;20017;-85
2022/10/28 00:32:29;;;;;;;;;;;;;;;17.74;68.10;102750.66;5023260;28;20028;-84
2022/10/28 00:34:55;;;;;;;9.32;6.78;;;;;;;17.63;67.98;102722.72;4997228;28;19916;-85
2022/10/28 00:37:20;;;;;;;8.10;6.50;;;;;;;17.69;67.98;102741.56;5013816;28;20029;-85
2022/10/28 00:39:46;;;;;;;9.90;6.88;;;;;;;17.49;68.00;102704.34;5030916;28;20029;-85
2022/10/28 00:42:18;;;;;;;11.20;7.32;;;;;;;17.66;68.14;102737.00;5040243;28;20031;-85
2022/10/28 00:45:02;;;;;;;11.13;7.35;;;;;;;17.73;67.81;102747.94;5035905;28;20021;-84
2022/10/28 00:47:43;;;;;;;9.40;7.03;;;;;;;17.73;67.96;102753.22;5043423;28;20028;-84
2022/10/28 00:50:19;;;;;;;9.85;7.30;;;;;;;17.66;68.06;102738.75;5050959;28;20028;-84
2022/10/28 00:52:53;;;;;;;9.15;6.80;;;;;;;17.57;68.03;102727.66;5045174;28;20029;-85
2022/10/28 00:55:20;;;;;;;9.73;7.05;;;;;;;17.63;68.09;102736.84;5033243;28;20032;-85
2022/10/28 00:57:46;;;;;;;9.32;6.60;;;;;;;17.64;67.92;102743.03;5018111;28;20394;-85
2022/10/28 01:00:12;;;;;;;8.93;6.55;;;;;;;17.68;67.92;102742.41;5034528;28;20146;-85
2022/10/28 01:02:47;;;;;;;9.35;6.20;;;;;;;17.69;67.86;102734.56;5036381;28;20086;-85
2022/10/28 01:05:14;;;;;;;9.18;6.60;;;;;;;17.55;67.88;102711.72;5059185;28;20032;-84
2022/10/28 01:07:40;;;;;;;9.15;6.57;;;;;;;17.46;67.92;102704.19;5026830;28;20071;-85
2022/10/28 01:10:07;;;;;;;9.02;6.90;;;;;;;17.38;68.02;102692.28;5028953;28;20116;-84
2022/10/28 01:12:47;;;;;;;9.13;6.55;;;;;;;17.53;67.96;102721.28;5054304;28;20032;-85
2022/10/28 01:15:25;;;;;;;7.88;6.20;;;;;;;17.66;67.88;102741.41;5034787;28;20024;-84
2022/10/28 01:17:56;;;;;;;8.18;6.47;;;;;;;17.63;67.97;102731.56;5053717;28;20031;-84
2022/10/28 01:20:40;;;;;;;10.25;6.57;;;;;;;17.60;68.12;102733.13;5059520;28;20045;-85
2022/10/28 01:23:09;;;;;;;7.97;6.22;;;;;;;17.69;67.78;102734.56;5046577;28;20045;-85
2022/10/28 01:26:05;;;;;;;9.13;6.90;;;;;;;17.63;67.91;102730.63;5024577;28;20032;-85
2022/10/28 01:28:59;;;;;;;9.07;6.78;;;;;;;17.57;67.96;102723.28;5035747;28;20061;-84
2022/10/28 01:31:49;;;;;;;9.82;6.63;;;;;;;17.60;67.77;102727.84;5034091;28;20028;-84
2022/10/28 01:34:31;;;;;;;8.00;6.90;;;;;;;17.54;68.17;102719.56;5036043;28;20020;-85
2022/10/28 01:37:15;;;;;;;8.32;6.22;;;;;;;17.45;67.87;102710.28;5033787;28;20486;-85
2022/10/28 01:39:46;;;;;;;9.02;6.50;;;;;;;17.63;67.67;102730.63;5050597;28;20025;-84
2022/10/28 01:42:26;;;;;;;9.10;6.95;;;;;;;17.54;67.67;102723.09;5052520;28;20497;-84
2022/10/28 01:44:58;;;;;;;8.27;6.05;;;;;;;17.60;67.66;102733.13;5032320;28;20481;-84
2022/10/28 01:47:50;;;;;;;9.50;7.00;;;;;;;17.58;67.61;102729.47;5051731;28;20537;-84
2022/10/28 01:50:24;;;;;;;7.93;6.28;;;;;;;17.59;67.87;102736.56;5032326;28;20033;-85
2022/10/28 01:52:53;;;;;;;7.18;6.35;;;;;;;17.38;68.02;102713.41;5042599;28;20047;-84
2022/10/28 01:55:27;;;;;;;8.10;6.15;;;;;;;17.56;67.32;102742.59;5049093;28;20017;-83
2022/10/28 01:57:55;;;;;;;8.80;6.45;;;;;;;17.57;67.79;102730.28;5029194;28;20032;-85
2022/10/28 02:00:21;;;;;;;8.57;6.63;;;;;;;17.55;67.38;102737.25;5030516;28;20049;-84
2022/10/28 02:02:47;;;;;;;6.95;5.88;;;;;;;17.53;67.54;102730.97;5034224;28;20060;-85
2022/10/28 02:05:37;;;;;;;7.78;6.05;;;;;;;17.59;67.43;102733.94;5037842;28;20028;-85
2022/10/28 02:08:37;;;;;;;9.00;6.10;;;;;;;17.51;67.81;102736.16;5034711;28;20104;-85
2022/10/28 02:11:20;;;;;;;7.43;6.03;;;;;;;17.41;67.79;102716.22;5014214;28;20063;-84
2022/10/28 02:14:04;;;;;;;7.57;5.90;;;;;;;17.46;67.61;102727.97;5054292;28;20113;-85
2022/10/28 02:16:44;;;;;;;8.73;6.28;;;;;;;17.52;67.38;102731.78;5035914;28;20025;-84
2022/10/28 02:19:23;;;;;;;9.10;6.72;;;;;;;17.55;66.95;102731.97;5029046;28;20017;-85
2022/10/28 02:22:07;;;;;;;8.07;6.40;;;;;;;17.37;67.44;102716.84;5026125;28;20138;-85
2022/10/28 02:25:13;;;;;;;7.93;5.90;;;;;;;17.54;67.35;102735.41;5051944;28;20040;-85
2022/10/28 02:28:01;;;;;;;8.35;6.38;;;;;;;17.50;66.99;102737.88;4972612;28;20038;-86
2022/10/28 02:30:59;;;;;;;6.82;5.75;;;;;;;17.41;67.56;102728.53;5040695;28;20068;-85
2022/10/28 02:33:30;;;;;;;9.20;6.60;;;;;;;17.37;67.40;102715.94;5035131;28;20025;-84
2022/10/28 02:36:03;;;;;;;7.13;5.72;;;;;;;17.49;67.17;102733.41;5044501;28;20063;-86
2022/10/28 02:38:41;;;;;;;8.25;6.35;;;;;;;17.38;67.17;102721.34;5043271;28;20029;-84
2022/10/28 02:41:14;;;;;;;8.23;6.50;;;;;;;17.30;67.41;102720.88;5017681;28;20738;-84
2022/10/28 02:43:41;;;;;;;8.38;5.95;;;;;;;17.43;67.06;102732.16;5033588;28;20024;-86
2022/10/28 02:46:07;;;;;;;8.00;6.15;;;;;;;17.44;67.29;102732.25;5034621;28;20021;-86
2022/10/28 02:48:43;;;;;;;7.13;5.97;;;;;;;17.30;67.19;102712.06;5050351;28;20024;-85
2022/10/28 02:51:15;;;;;;;8.75;6.40;;;;;;;17.42;67.43;102743.53;5034866;28;20048;-88
2022/10/28 02:53:53;;;;;;;8.50;5.82;;;;;;;17.13;67.25;102686.41;5048332;28;20017;-86
2022/10/28 02:56:20;;;;;;;9.40;6.30;;;;;;;17.12;67.69;102696.03;5034012;28;20051;-86
2022/10/28 02:58:46;;;;;;;7.47;5.55;;;;;;;17.11;67.49;102688.06;5025429;28;20041;-86
2022/10/28 03:01:12;;;;;;;7.10;5.88;;;;;;;17.23;67.25;102709.88;5034269;28;20031;-86
2022/10/28 03:03:38;;;;;;;7.75;6.15;;;;;;;17.32;67.23;102726.25;5016542;28;20120;-86
2022/10/28 03:06:03;;;;;;;7.13;5.80;;;;;;;17.00;67.56;102683.06;5035085;28;20029;-86
2022/10/28 03:08:29;;;;;;;7.13;5.65;;;;;;;17.34;67.10;102731.63;5051464;28;20082;-87
2022/10/28 03:10:54;;;;;;;7.78;6.00;;;;;;;17.29;67.35;102729.63;5030720;28;20040;-85
2022/10/28 03:13:20;;;;;;;8.18;5.97;;;;;;;17.32;66.96;102742.09;5032875;28;20032;-85
2022/10/28 03:15:46;;;;;;;7.28;5.93;;;;;;;17.28;67.42;102737.47;5052410;28;20033;-85
2022/10/28 03:18:12;;;;;;;7.70;5.90;;;;;;;17.08;67.57;102708.19;5053065;28;20090;-84
2022/10/28 03:20:37;;;;;;;7.60;5.85;;;;;;;17.36;67.53;102752.03;5019253;28;20024;-83
2022/10/28 03:23:03;;;;;;;6.68;5.60;;;;;;;17.38;67.25;102750.38;5032283;28;20116;-85
2022/10/28 03:25:28;;;;;;;7.53;5.95;;;;;;;17.18;67.21;102729.81;5040216;28;20033;-84
2022/10/28 03:27:54;;;;;;;8.80;5.75;;;;;;;17.33;67.39;102756.22;5043964;28;20030;-85
2022/10/28 03:30:19;;;;;;;6.90;5.70;;;;;;;17.29;67.17;102747.19;5045787;28;20079;-85
2022/10/28 03:32:45;;;;;;;8.07;6.05;;;;;;;17.22;67.33;102735.38;5032299;28;20095;-85
2022/10/28 03:35:11;;;;;;;6.45;5.55;;;;;;;17.33;67.35;102762.41;5046446;28;20033;-85
2022/10/28 03:37:36;;;;;;;7.05;5.75;;;;;;;17.06;67.41;102723.00;5031188;28;20029;-84
2022/10/28 03:40:06;;;;;;;8.35;5.30;;;;;;;17.24;66.98;102739.00;5034506;28;20091;-85
2022/10/28 03:42:32;;;;;;;7.60;5.78;;;;;;;17.30;67.40;102759.59;5030204;28;20112;-86
2022/10/28 03:44:58;;;;;;;8.07;5.07;;;;;;;17.15;67.33;102735.84;5047330;28;20025;-86
2022/10/28 03:47:24;;;;;;;6.65;5.57;;;;;;;17.15;67.19;102740.22;5046489;28;20035;-85
2022/10/28 03:49:50;;;;;;;6.60;5.25;;;;;;;17.18;66.99;102743.94;5029235;28;20024;-85
2022/10/28 03:52:16;;;;;;;7.03;5.88;;;;;;;17.29;67.05;102757.75;5039332;28;20509;-81
2022/10/28 03:54:41;;;;;;;7.85;5.90;;;;;;;17.15;66.91;102742.88;5032518;28;20116;-83
2022/10/28 03:57:07;;;;;;;6.75;5.70;;;;;;;17.26;66.98;102763.78;5046031;28;20502;-83
2022/10/28 03:59:32;;;;;;;7.97;6.10;;;;;;;17.24;66.78;102751.31;5033229;28;20028;-83
2022/10/28 04:01:58;;;;;;;7.93;6.07;;;;;;;17.02;67.13;102723.66;5030652;28;20024;-82
2022/10/28 04:04:24;;;;;;;7.72;5.43;;;;;;;17.13;67.21;102748.03;5049535;28;20566;-83
2022/10/28 04:06:49;;;;;;;7.40;5.65;;;;;;;17.24;67.01;102767.16;5047282;28;20029;-83
2022/10/28 04:09:15;;;;;;;7.32;5.97;;;;;;;17.03;66.85;102725.47;5028315;28;20044;-84
2022/10/28 04:11:40;;;;;;;7.38;6.07;;;;;;;16.97;66.99;102717.16;5043078;28;20074;-83
2022/10/28 04:14:06;;;;;;;7.90;6.00;;;;;;;17.19;67.07;102758.97;5032264;28;20044;-83
2022/10/28 04:16:31;;;;;;;8.07;5.82;;;;;;;16.78;66.64;102685.22;5047780;28;20063;-82
2022/10/28 04:18:57;;;;;;;6.68;5.57;;;;;;;17.09;67.06;102725.81;5037518;28;20051;-86
2022/10/28 04:21:23;;;;;;;7.10;5.78;;;;;;;16.97;67.05;102725.09;5041821;28;20028;-83
2022/10/28 04:23:48;;;;;;;7.53;5.72;;;;;;;17.12;67.11;102746.19;5038436;28;20187;-82
2022/10/28 04:26:14;;;;;;;9.85;6.18;;;;;;;17.04;67.25;102744.88;5038058;28;20708;-84
2022/10/28 04:28:40;;;;;;;7.18;5.63;;;;;;;17.14;67.09;102764.78;5052676;28;20567;-84
2022/10/28 04:31:06;;;;;;;6.95;5.45;;;;;;;17.12;67.15;102758.50;5048240;28;20060;-90
2022/10/28 04:33:34;;;;;;;7.18;5.90;;;;;;;16.99;66.95;102739.28;5016369;28;20032;-90
2022/10/28 04:35:59;;;;;;;6.78;5.47;;;;;;;16.88;66.99;102720.19;5033104;28;20036;-86
2022/10/28 04:38:26;;;;;;;6.55;5.45;;;;;;;17.05;67.20;102741.41;5015531;28;20037;-88
2022/10/28 04:40:51;;;;;;;8.27;5.40;;;;;;;16.72;67.13;102696.31;5038577;28;20032;-88
2022/10/28 04:43:17;;;;;;;8.10;5.70;;;;;;;16.79;66.81;102716.06;5032152;28;20036;-88
2022/10/28 04:45:45;;;;;;;8.23;5.35;;;;;;;17.10;67.30;102766.31;5011551;28;20521;-88
2022/10/28 04:48:10;;;;;;;8.25;5.80;;;;;;;17.07;67.41;102767.06;5031325;28;20037;-89
2022/10/28 04:50:37;;;;;;;6.55;5.50;;;;;;;17.08;67.14;102771.53;5014557;28;20494;-88
2022/10/28 04:53:03;;;;;;;7.53;5.50;;;;;;;16.96;67.37;102747.03;5013187;28;20029;-89
2022/10/28 04:55:28;;;;;;;7.88;5.15;;;;;;;17.11;67.17;102768.16;5012011;28;20029;-87
2022/10/28 04:57:58;;;;;;;7.05;5.10;;;;;;;17.09;67.06;102772.44;5046654;28;20024;-87
2022/10/28 05:00:24;;;;;;;10.23;5.80;;;;;;;17.08;67.10;102774.19;5027487;28;20029;-88
2022/10/28 05:02:50;;;;;;;7.47;5.32;;;;;;;17.09;67.29;102769.81;5046796;28;20028;-87
2022/10/28 05:05:16;;;;;;;6.15;5.53;;;;;;;16.93;67.18;102756.50;5031336;28;20060;-88
2022/10/28 05:07:42;;;;;;;;;;;;;;;17.05;67.15;102776.63;5031062;28;20032;-86
2022/10/28 05:10:08;;;;;;;6.43;5.28;;;;;;;17.07;67.18;102777.63;5020392;28;19913;-87
2022/10/28 05:12:33;;;;;;;6.95;5.70;;;;;;;17.05;67.11;102773.06;5028688;28;20053;-86
2022/10/28 05:14:59;;;;;;;7.00;5.78;;;;;;;16.99;67.28;102765.69;5039564;28;20037;-87
2022/10/28 05:17:24;;;;;;;6.20;5.57;;;;;;;16.83;66.99;102741.84;5043871;28;20167;-87
2022/10/28 05:19:51;;;;;;;7.70;5.82;;;;;;;16.77;66.73;102737.06;5048231;28;20109;-87
2022/10/28 05:22:16;;;;;;;7.60;5.65;;;;;;;16.64;67.17;102710.78;5006078;28;20045;-88
2022/10/28 05:24:42;;;;;;;7.03;5.75;;;;;;;16.64;66.95;102714.31;5028001;28;20029;-86
2022/10/28 05:27:08;;;;;;;6.95;5.43;;;;;;;16.95;67.01;102778.63;5013292;28;20057;-88
2022/10/28 05:29:33;;;;;;;7.43;5.60;;;;;;;16.91;67.01;102776.59;5011708;28;20021;-88
2022/10/28 05:31:59;;;;;;;7.47;5.47;;;;;;;16.72;67.06;102757.00;5029615;28;20031;-87
2022/10/28 05:34:25;;;;;;;8.00;5.72;;;;;;;16.91;66.95;102773.97;5024244;28;20104;-88
2022/10/28 05:36:50;;;;;;;8.02;5.43;;;;;;;16.76;66.71;102747.53;5033469;28;20509;-86
2022/10/28 05:39:16;;;;;;;9.52;6.10;;;;;;;16.94;66.83;102784.72;5030316;28;20422;-85
2022/10/28 05:41:42;;;;;;;;;;;;;;;17.00;66.96;102801.84;5030315;28;20026;-83
2022/10/28 05:44:08;;;;;;;8.27;5.57;;;;;;;16.96;66.57;102798.94;5022486;28;20373;-83
2022/10/28 05:46:33;;;;;;;8.43;5.82;;;;;;;16.89;66.90;102792.38;5021941;28;20556;-84
2022/10/28 05:48:59;;;;;;;7.95;5.63;;;;;;;16.92;66.98;102791.63;5014007;28;20037;-83
2022/10/28 05:51:25;;;;;;;7.38;5.53;;;;;;;16.84;66.93;102784.16;5027778;28;20026;-80
2022/10/28 05:53:50;;;;;;;7.28;5.80;;;;;;;16.96;66.48;102793.66;5028949;28;20391;-83
2022/10/28 05:56:19;;;;;;;8.85;5.95;;;;;;;16.97;66.81;102806.91;5034218;28;20079;-83
2022/10/28 05:58:46;;;;;;;7.55;5.90;;;;;;;17.00;66.31;102816.78;5033378;28;20040;-83
2022/10/28 06:01:12;;;;;;;8.30;5.93;;;;;;;16.93;66.75;102807.53;5014070;28;20462;-84
2022/10/28 06:03:37;;;;;;;7.57;5.72;;;;;;;17.01;66.72;102811.56;5014603;28;20115;-84
2022/10/28 06:06:03;;;;;;;7.22;6.15;;;;;;;16.87;66.62;102791.38;5022666;28;20025;-82
2022/10/28 06:08:29;;;;;;;9.73;5.82;;;;;;;16.85;66.82;102786.00;5029107;28;20029;-81
2022/10/28 06:10:54;;;;;;;;;;;;;;;17.02;66.56;102815.13;5035117;28;20115;-81
2022/10/28 06:13:20;;;;;;;6.95;5.95;;;;;;;16.99;66.65;102820.22;5032327;28;19996;-84
2022/10/28 06:15:53;;;;;;;8.27;6.00;;;;;;;16.98;66.64;102821.94;5029287;28;20088;-82
2022/10/28 06:18:19;;;;;;;6.85;5.35;;;;;;;16.95;66.91;102832.31;5014262;28;20041;-83
2022/10/28 06:20:51;;;;;;;6.82;5.70;;;;;;;16.91;67.18;102829.38;5029643;28;20033;-84
2022/10/28 06:23:16;;;;;;;7.40;5.55;;;;;;;16.97;66.68;102828.03;5046312;28;20057;-82
2022/10/28 06:25:42;;;;;;;6.55;5.55;;;;;;;16.88;66.90;102816.94;5051997;28;20013;-83
2022/10/28 06:28:08;;;;;;;6.55;5.50;;;;;;;16.79;66.65;102795.22;5041984;28;20049;-85
2022/10/28 06:30:34;;;;;;;9.43;5.82;;;;;;;16.95;66.85;102832.31;5019189;28;20412;-84
2022/10/28 06:33:00;;;;;;;6.03;5.20;;;;;;;16.90;66.84;102831.13;5037948;28;20100;-84
2022/10/28 06:35:27;;;;;;;7.93;5.55;;;;;;;16.88;66.68;102828.38;5036277;28;20064;-86
2022/10/28 06:37:57;;;;;;;7.40;5.32;;;;;;;16.87;66.79;102821.31;5028003;28;20405;-84
2022/10/28 06:40:26;;;;;;;8.98;6.00;;;;;;;16.85;66.89;102822.03;5033307;28;20025;-84
2022/10/28 06:43:04;;;;;;;6.65;5.45;;;;;;;16.77;66.79;102808.31;5013204;28;20024;-86
2022/10/28 06:45:32;;;;;;;8.75;5.82;;;;;;;16.90;66.54;102817.94;5032748;28;20028;-82
2022/10/28 06:48:03;;;;;;;6.50;5.28;;;;;;;16.67;67.10;102792.75;5035355;28;20021;-85
2022/10/28 06:50:29;;;;;;;7.40;5.65;;;;;;;16.95;66.76;102844.59;5034117;28;20111;-86
2022/10/28 06:52:56;;;;;;;7.70;5.45;;;;;;;16.95;66.85;102842.88;5031368;28;20078;-85
2022/10/28 06:55:22;;;;;;;7.78;5.53;;;;;;;16.83;66.84;102824.56;5034547;28;20111;-85
2022/10/28 06:57:48;;;;;;;7.65;5.30;;;;;;;16.82;67.08;102829.75;5042465;28;20024;-84
2022/10/28 07:00:14;;;;;;;6.72;5.50;;;;;;;16.91;66.91;102845.22;5031354;28;20035;-83
2022/10/28 07:02:40;;;;;;;5.90;5.28;;;;;;;16.86;67.06;102834.41;5051296;28;20048;-84
2022/10/28 07:05:06;;;;;;;7.15;5.55;;;;;;;16.92;66.88;102847.97;5045490;28;20025;-84
2022/10/28 07:07:32;;;;;;;;;;;;;;;16.85;67.16;102844.06;5015233;28;20494;-84
2022/10/28 07:09:57;;;;;;;6.93;5.40;;;;;;;16.82;67.19;102835.91;5057278;28;19999;-85
2022/10/28 07:12:23;;;;;;;6.85;5.82;;;;;;;16.87;67.16;102846.78;5060090;28;20032;-84
2022/10/28 07:14:48;;;;;;;7.22;5.60;;;;;;;16.76;67.12;102817.03;5027914;28;20029;-84
2022/10/28 07:17:14;;;;;;;6.85;5.40;;;;;;;16.87;67.12;102838.88;5049439;28;20502;-85
2022/10/28 07:19:39;;;;;;;6.55;5.60;;;;;;;16.81;67.05;102822.66;5049974;28;20114;-86
2022/10/28 07:22:05;;;;;;;7.35;5.47;;;;;;;16.87;67.19;102837.13;5025374;28;20044;-85
2022/10/28 07:24:30;;;;;;;6.10;5.28;;;;;;;16.88;67.03;102835.41;5032302;28;20036;-84
2022/10/28 07:26:56;;;;;;;6.78;5.22;;;;;;;16.85;67.07;102838.78;5022958;28;20029;-84
2022/10/28 07:29:22;;;;;;;6.78;5.30;;;;;;;16.84;67.32;102839.56;5030028;28;20041;-84
2022/10/28 07:31:47;;;;;;;7.75;5.28;;;;;;;16.87;67.17;102836.22;5024206;28;20103;-84
2022/10/28 07:34:13;;;;;;;6.60;5.45;;;;;;;16.83;67.12;102831.59;5029133;28;20108;-83
2022/10/28 07:36:38;;;;;;;7.80;5.55;;;;;;;16.86;67.03;102835.28;5031623;28;20079;-83
2022/10/28 07:39:04;;;;;;;6.00;5.25;;;;;;;16.81;66.96;102820.91;5031876;28;20041;-82
2022/10/28 07:41:30;;;;;;;7.72;5.93;;;;;;;16.85;67.26;102837.88;5028356;28;20060;-83
2022/10/28 07:43:55;;;;;;;8.20;5.80;;;;;;;16.85;67.18;102825.56;5026660;28;20044;-83
2022/10/28 07:46:21;;;;;;;7.80;5.40;;;;;;;16.80;67.31;102815.50;5031910;28;20029;-82
2022/10/28 07:48:46;;;;;;;7.43;5.68;;;;;;;16.87;67.04;102823.94;5031904;28;20065;-82
2022/10/28 07:51:13;;;;;;;6.95;5.35;;;;;;;16.89;67.22;102832.88;5031644;28;20053;-82
2022/10/28 07:53:40;;;;;;;7.43;5.65;;;;;;;16.76;67.25;102821.41;5030550;28;20034;-82
2022/10/28 07:56:12;;;;;;;9.35;5.78;;;;;;;16.88;67.42;102830.13;5031149;28;20059;-82
2022/10/28 07:58:38;;;;;;;8.13;5.80;;;;;;;16.85;67.41;102833.50;5020417;28;20524;-84
2022/10/28 08:01:04;;;;;;;;;;;;;;;16.87;67.49;102836.22;5032069;28;20141;-82
2022/10/28 08:03:30;;;;;;;6.82;5.30;;;;;;;16.67;67.59;102798.91;5030222;28;20314;-83
2022/10/28 08:06:07;;;;;;;6.85;5.47;;;;;;;16.83;67.49;102835.13;5027361;28;20052;-82
2022/10/28 08:08:33;;;;;;;7.63;5.50;;;;;;;16.72;67.46;102800.94;5025570;28;20065;-84
2022/10/28 08:10:58;;;;;;;7.35;5.25;;;;;;;16.85;67.61;102832.59;5025458;28;20056;-83
2022/10/28 08:13:24;;;;;;;7.93;6.07;;;;;;;16.85;67.59;102827.31;5025922;28;20172;-82
2022/10/28 08:15:53;;;;;;;7.13;5.53;;;;;;;16.83;67.49;102827.22;5030389;28;20029;-82
2022/10/28 08:18:20;;;;;;;6.93;5.10;;;;;;;16.84;67.62;102830.75;5027387;28;20453;-83
2022/10/28 08:20:46;;;;;;;6.30;5.15;;;;;;;16.85;67.50;102824.66;5025558;28;20036;-84
2022/10/28 08:23:11;;;;;;;7.50;4.93;;;;;;;16.84;67.50;102821.09;5041371;28;20045;-84
2022/10/28 08:25:37;;;;;;;7.05;5.45;;;;;;;16.81;67.67;102822.66;5044230;28;20033;-84
2022/10/28 08:28:02;;;;;;;6.60;5.18;;;;;;;16.83;67.69;102827.22;5041098;28;20032;-81
2022/10/28 08:30:28;;;;;;;7.80;5.38;;;;;;;16.79;67.44;102814.59;5040813;28;20040;-83
2022/10/28 08:32:54;;;;;;;7.70;4.97;;;;;;;16.77;67.72;102812.69;5038171;28;20132;-83
2022/10/28 08:35:20;;;;;;;7.55;4.68;;;;;;;16.73;67.59;102808.94;5050843;28;20033;-83
2022/10/28 08:37:51;;;;;;;9.52;5.20;;;;;;;16.84;67.64;102820.19;5050781;28;20025;-84
2022/10/28 08:40:19;;;;;;;6.60;5.35;;;;;;;16.74;67.48;102808.13;5038755;28;20064;-82
2022/10/28 08:42:51;;;;;;;6.63;5.05;;;;;;;16.78;67.61;102815.41;5031394;28;20502;-82
2022/10/28 08:45:41;;;;;;;6.65;5.03;;;;;;;16.79;67.45;102814.59;5036185;28;20063;-82
2022/10/28 08:48:42;;;;;;;6.47;4.85;;;;;;;16.87;67.53;102826.59;5046895;28;20108;-81
2022/10/28 08:51:12;;;;;;;7.03;4.90;;;;;;;16.86;67.53;102830.03;5028377;28;20107;-81
2022/10/28 08:53:43;;;;;;;6.50;4.97;;;;;;;16.85;67.62;102829.94;5033989;28;20492;-80
2022/10/28 08:56:13;;;;;;;6.50;5.18;;;;;;;16.88;67.50;102823.09;5037757;28;20082;-82
2022/10/28 08:58:40;;;;;;;6.90;5.03;;;;;;;16.89;67.43;102818.75;5050034;28;20036;-80
2022/10/28 09:01:09;;;;;;;7.18;4.80;;;;;;;16.89;67.36;102817.03;5042584;28;20124;-81
2022/10/28 09:03:39;;;;;;;6.93;5.28;;;;;;;16.76;67.62;102809.13;5038538;28;20029;-79
2022/10/28 09:06:06;;;;;;;5.95;5.10;;;;;;;16.83;67.60;102807.84;5025103;28;20083;-84
2022/10/28 09:08:38;;;;;;;8.73;4.80;;;;;;;16.86;67.61;102816.81;5040410;28;20053;-83
2022/10/28 09:11:22;;;;;;;7.15;5.65;;;;;;;16.87;67.63;102818.66;5024006;28;20021;-83
2022/10/28 09:14:05;;;;;;;6.07;4.85;;;;;;;16.87;67.49;102816.03;5031983;28;20411;-83
2022/10/28 09:16:42;;;;;;;7.50;4.88;;;;;;;16.88;67.69;102817.81;5043157;28;20036;-82
2022/10/28 09:19:38;;;;;;;8.25;4.88;;;;;;;16.90;67.52;102810.00;5031108;28;20020;-82
2022/10/28 09:22:18;;;;;;;6.45;5.13;;;;;;;16.93;67.35;102818.09;5047459;28;20049;-82
2022/10/28 09:24:54;;;;;;;5.57;4.82;;;;;;;16.92;67.45;102818.03;5044961;28;20090;-82
2022/10/28 09:27:56;;;;;;;6.85;4.93;;;;;;;16.94;67.26;102819.03;5035761;28;20035;-84
2022/10/28 09:30:31;;;;;;;6.05;4.60;;;;;;;16.88;67.65;102807.28;5045317;28;20032;-81
2022/10/28 09:33:02;;;;;;;6.95;5.00;;;;;;;16.94;67.26;102812.03;5042881;28;20085;-82
2022/10/28 09:35:31;;;;;;;6.53;4.88;;;;;;;16.87;67.32;102804.56;5052767;28;20056;-83
2022/10/28 09:38:06;;;;;;;7.03;5.30;;;;;;;16.88;67.57;102804.63;5036064;28;20481;-82
2022/10/28 09:40:34;;;;;;;6.63;5.22;;;;;;;16.80;67.50;102781.19;5049069;28;20036;-83
2022/10/28 09:43:17;;;;;;;5.88;5.03;;;;;;;16.93;67.46;102804.91;5046399;28;20033;-82
2022/10/28 09:45:45;;;;;;;6.43;5.20;;;;;;;16.89;67.43;102795.91;5038723;28;20037;-81
2022/10/28 09:48:56;;;;;;;7.13;5.15;;;;;;;16.93;67.61;102802.25;5038819;28;20029;-82
2022/10/28 09:51:36;;;;;;;6.25;4.75;;;;;;;16.92;67.59;102800.47;5047506;28;20041;-82
2022/10/28 09:54:02;;;;;;;6.15;5.10;;;;;;;16.86;67.50;102789.53;5051765;28;20071;-82
2022/10/28 09:56:29;;;;;;;5.45;4.85;;;;;;;16.92;67.63;102794.28;5064485;28;20466;-83
2022/10/28 09:58:57;;;;;;;5.97;4.75;;;;;;;16.89;67.50;102787.09;5036372;28;20068;-80
2022/10/28 10:01:23;;;;;;;6.85;5.30;;;;;;;16.76;67.97;102766.00;5034103;28;20033;-85
2022/10/28 10:03:50;;;;;;;6.07;5.15;;;;;;;16.76;68.02;102787.09;5022217;28;20548;-81
2022/10/28 10:06:36;;;;;;;5.82;4.80;;;;;;;16.89;67.70;102789.72;5035750;28;20033;-81
2022/10/28 10:09:08;;;;;;;8.13;5.43;;;;;;;16.85;67.79;102786.00;5053017;28;20086;-81
2022/10/28 10:11:43;;;;;;;6.93;4.82;;;;;;;16.79;67.94;102782.03;5027107;28;20029;-81
2022/10/28 10:14:11;;;;;;;5.80;5.13;;;;;;;16.61;68.23;102764.25;5019656;28;20029;-81
2022/10/28 10:16:55;;;;;;;6.03;5.22;;;;;;;16.70;68.31;102782.38;5035145;28;20029;-83
2022/10/28 10:19:21;;;;;;;6.97;5.45;;;;;;;16.75;67.97;102773.00;5038101;28;20028;-82
2022/10/28 10:21:49;;;;;;;6.43;5.70;;;;;;;16.80;68.20;102775.91;5025078;28;20097;-81
2022/10/28 10:24:24;;;;;;;6.50;5.03;;;;;;;16.73;68.44;102776.38;5020204;28;20055;-83
2022/10/28 10:26:51;;;;;;;7.30;5.07;;;;;;;16.71;68.22;102765.72;5039994;28;20037;-82
2022/10/28 10:29:17;;;;;;;6.95;5.15;;;;;;;16.67;68.47;102763.72;5018636;28;20493;-82
2022/10/28 10:31:44;;;;;;;6.60;5.22;;;;;;;16.72;68.27;102758.72;5035140;28;20080;-82
2022/10/28 10:34:24;;;;;;;5.85;4.85;;;;;;;16.71;68.49;102767.47;5040963;28;20040;-82
2022/10/28 10:36:54;;;;;;;6.65;5.22;;;;;;;16.68;68.57;102755.91;5047093;28;20049;-82
2022/10/28 10:39:25;;;;;;;5.95;4.88;;;;;;;16.62;68.35;102744.97;5036720;28;20032;-82
2022/10/28 10:41:50;;;;;;;5.80;4.90;;;;;;;16.75;68.51;102748.38;5025020;28;20025;-84
2022/10/28 10:44:22;;;;;;;6.95;5.20;;;;;;;16.79;68.10;102750.38;5044901;28;20044;-85
2022/10/28 10:46:59;;;;;;;7.18;5.20;;;;;;;16.76;68.27;102747.53;5042655;28;20021;-86
2022/10/28 10:49:28;;;;;;;6.30;5.00;;;;;;;16.68;68.25;102732.16;5046519;28;20502;-84
2022/10/28 10:51:56;;;;;;;8.80;4.78;;;;;;;16.79;68.21;102740.72;5024955;28;20021;-84
2022/10/28 10:54:23;;;;;;;7.30;5.22;;;;;;;16.82;68.05;102734.75;5046460;28;20036;-84
2022/10/28 10:56:48;;;;;;;7.03;5.22;;;;;;;16.75;68.14;102712.31;5031316;28;20021;-84
2022/10/28 10:59:41;;;;;;;6.10;4.68;;;;;;;16.93;67.67;102744.19;5035623;28;20086;-83
2022/10/28 11:02:21;;;;;;;7.00;5.20;;;;;;;16.91;67.78;102731.75;5030206;28;20039;-84
2022/10/28 11:04:51;;;;;;;6.18;4.82;;;;;;;16.84;67.63;102722.56;5034558;28;20036;-84
2022/10/28 11:07:16;;;;;;;8.05;5.13;;;;;;;16.89;67.78;102726.41;5064930;28;20477;-85
2022/10/28 11:09:46;;;;;;;6.13;4.82;;;;;;;16.78;67.84;102707.22;5050806;28;20063;-84
2022/10/28 11:12:33;;;;;;;6.32;5.22;;;;;;;16.89;67.97;102729.03;5032515;28;20049;-84
2022/10/28 11:15:20;;;;;;;6.30;4.85;;;;;;;16.90;67.81;102717.63;5051659;28;20101;-84
2022/10/28 11:18:00;;;;;;;6.60;4.65;;;;;;;16.95;67.65;102726.72;5029783;28;20546;-85
2022/10/28 11:20:49;;;;;;;5.68;5.00;;;;;;;16.95;67.55;102725.81;5030677;28;20049;-85
2022/10/28 11:23:48;;;;;;;6.43;5.20;;;;;;;16.93;67.75;102716.91;5043244;28;20069;-86
2022/10/28 11:26:15;;;;;;;8.23;5.10;;;;;;;16.92;67.92;102717.75;5041788;28;20552;-85
2022/10/28 11:29:06;;;;;;;5.55;4.80;;;;;;;16.87;67.97;102722.75;5030886;28;20026;-83
2022/10/28 11:32:04;;;;;;;6.38;4.80;;;;;;;16.85;67.69;102703.28;5044404;28;20044;-86
2022/10/28 11:34:46;;;;;;;5.65;4.75;;;;;;;16.92;67.51;102708.09;5038663;28;20029;-85
2022/10/28 11:37:25;;;;;;;6.18;4.60;;;;;;;17.01;67.54;102719.19;5051868;28;20036;-85
2022/10/28 11:40:09;;;;;;;6.90;4.68;;;;;;;16.92;67.63;102701.91;5038313;28;20486;-85
2022/10/28 11:43:11;;;;;;;6.18;4.80;;;;;;;17.08;67.39;102713.47;5041514;28;20409;-85